sensor_id;sensor_type;location;lat;lon;timestamp;P1;durP1;ratioP1;P2;durP2;ratioP2
46689;SDS011;32423;45.398;10.874;2023-11-19T00:00:44;11.20;;;4.82;;
46689;SDS011;32423;45.398;10.874;2023-11-19T00:03:37;12.07;;;6.17;;
46689;SDS011;32423;45.398;10.874;2023-11-19T00:06:29;13.98;;;4.68;;
46689;SDS011;32423;45.398;10.874;2023-11-19T00:09:26;8.75;;;3.60;;
46689;SDS011;32423;45.398;10.874;2023-11-19T00:12:18;15.88;;;4.75;;
46689;SDS011;32423;45.398;10.874;2023-11-19T00:15:10;7.60;;;4.63;;
46689;SDS011;32423;45.398;10.874;2023-11-19T00:18:02;8.63;;;4.43;;
46689;SDS011;32423;45.398;10.874;2023-11-19T00:20:56;7.53;;;4.82;;
46689;SDS011;32423;45.398;10.874;2023-11-19T00:23:51;5.95;;;3.60;;
46689;SDS011;32423;45.398;10.874;2023-11-19T00:26:46;9.03;;;4.33;;
46689;SDS011;32423;45.398;10.874;2023-11-19T00:29:40;12.23;;;4.10;;
46689;SDS011;32423;45.398;10.874;2023-11-19T00:32:35;4.50;;;2.50;;
46689;SDS011;32423;45.398;10.874;2023-11-19T00:35:28;9.50;;;4.32;;
46689;SDS011;32423;45.398;10.874;2023-11-19T00:38:23;12.10;;;5.03;;
46689;SDS011;32423;45.398;10.874;2023-11-19T00:41:17;9.52;;;4.55;;
46689;SDS011;32423;45.398;10.874;2023-11-19T00:44:12;7.33;;;3.57;;
46689;SDS011;32423;45.398;10.874;2023-11-19T00:47:09;10.25;;;4.50;;
46689;SDS011;32423;45.398;10.874;2023-11-19T00:50:04;9.07;;;4.67;;
46689;SDS011;32423;45.398;10.874;2023-11-19T00:52:59;9.03;;;5.13;;
46689;SDS011;32423;45.398;10.874;2023-11-19T00:55:53;7.47;;;3.15;;
46689;SDS011;32423;45.398;10.874;2023-11-19T00:58:45;7.77;;;3.93;;
46689;SDS011;32423;45.398;10.874;2023-11-19T01:01:40;5.68;;;3.58;;
46689;SDS011;32423;45.398;10.874;2023-11-19T01:04:38;3.13;;;1.95;;
46689;SDS011;32423;45.398;10.874;2023-11-19T01:07:33;8.00;;;3.22;;
46689;SDS011;32423;45.398;10.874;2023-11-19T01:10:27;4.07;;;2.58;;
46689;SDS011;32423;45.398;10.874;2023-11-19T01:13:22;3.42;;;2.03;;
46689;SDS011;32423;45.398;10.874;2023-11-19T01:16:17;3.20;;;2.03;;
46689;SDS011;32423;45.398;10.874;2023-11-19T01:19:11;3.17;;;2.20;;
46689;SDS011;32423;45.398;10.874;2023-11-19T01:22:03;4.20;;;2.45;;
46689;SDS011;32423;45.398;10.874;2023-11-19T01:24:58;3.17;;;2.08;;
46689;SDS011;32423;45.398;10.874;2023-11-19T01:27:51;3.55;;;2.90;;
46689;SDS011;32423;45.398;10.874;2023-11-19T01:30:43;7.40;;;3.17;;
46689;SDS011;32423;45.398;10.874;2023-11-19T01:33:38;4.82;;;2.50;;
46689;SDS011;32423;45.398;10.874;2023-11-19T01:36:30;8.75;;;3.72;;
46689;SDS011;32423;45.398;10.874;2023-11-19T01:39:25;4.30;;;2.73;;
46689;SDS011;32423;45.398;10.874;2023-11-19T01:42:19;10.37;;;5.17;;
46689;SDS011;32423;45.398;10.874;2023-11-19T01:45:17;8.93;;;4.32;;
46689;SDS011;32423;45.398;10.874;2023-11-19T01:48:18;20.30;;;4.07;;
46689;SDS011;32423;45.398;10.874;2023-11-19T01:51:13;4.88;;;2.90;;
46689;SDS011;32423;45.398;10.874;2023-11-19T01:54:08;14.85;;;5.05;;
46689;SDS011;32423;45.398;10.874;2023-11-19T01:57:01;8.45;;;5.05;;
46689;SDS011;32423;45.398;10.874;2023-11-19T01:59:55;8.23;;;4.95;;
46689;SDS011;32423;45.398;10.874;2023-11-19T02:02:50;9.68;;;5.35;;
46689;SDS011;32423;45.398;10.874;2023-11-19T02:05:44;9.67;;;4.90;;
46689;SDS011;32423;45.398;10.874;2023-11-19T02:08:37;7.95;;;5.18;;
46689;SDS011;32423;45.398;10.874;2023-11-19T02:11:32;7.50;;;4.72;;
46689;SDS011;32423;45.398;10.874;2023-11-19T02:14:27;10.52;;;5.38;;
46689;SDS011;32423;45.398;10.874;2023-11-19T02:17:28;7.90;;;4.90;;
46689;SDS011;32423;45.398;10.874;2023-11-19T02:20:23;10.32;;;5.63;;
46689;SDS011;32423;45.398;10.874;2023-11-19T02:23:18;12.48;;;5.72;;
46689;SDS011;32423;45.398;10.874;2023-11-19T02:26:46;11.38;;;5.95;;
46689;SDS011;32423;45.398;10.874;2023-11-19T02:29:33;9.65;;;5.72;;
46689;SDS011;32423;45.398;10.874;2023-11-19T02:32:25;9.02;;;4.68;;
46689;SDS011;32423;45.398;10.874;2023-11-19T02:35:22;15.73;;;4.88;;
46689;SDS011;32423;45.398;10.874;2023-11-19T02:38:14;8.35;;;3.72;;
46689;SDS011;32423;45.398;10.874;2023-11-19T02:41:08;12.45;;;6.50;;
46689;SDS011;32423;45.398;10.874;2023-11-19T02:44:03;7.87;;;3.13;;
46689;SDS011;32423;45.398;10.874;2023-11-19T02:46:58;6.45;;;3.20;;
46689;SDS011;32423;45.398;10.874;2023-11-19T02:49:52;5.17;;;3.20;;
46689;SDS011;32423;45.398;10.874;2023-11-19T02:52:47;8.40;;;3.00;;
46689;SDS011;32423;45.398;10.874;2023-11-19T02:55:41;6.43;;;3.38;;
46689;SDS011;32423;45.398;10.874;2023-11-19T02:58:38;8.80;;;3.72;;
46689;SDS011;32423;45.398;10.874;2023-11-19T03:01:32;5.67;;;3.30;;
46689;SDS011;32423;45.398;10.874;2023-11-19T03:04:22;5.50;;;3.03;;
46689;SDS011;32423;45.398;10.874;2023-11-19T03:07:14;4.65;;;3.03;;
46689;SDS011;32423;45.398;10.874;2023-11-19T03:10:10;5.80;;;2.25;;
46689;SDS011;32423;45.398;10.874;2023-11-19T03:13:07;4.30;;;3.00;;
46689;SDS011;32423;45.398;10.874;2023-11-19T03:16:08;4.00;;;2.38;;
46689;SDS011;32423;45.398;10.874;2023-11-19T03:19:03;4.88;;;2.78;;
46689;SDS011;32423;45.398;10.874;2023-11-19T03:21:57;5.85;;;3.10;;
46689;SDS011;32423;45.398;10.874;2023-11-19T03:24:55;4.20;;;2.28;;
46689;SDS011;32423;45.398;10.874;2023-11-19T03:27:50;4.97;;;3.55;;
46689;SDS011;32423;45.398;10.874;2023-11-19T03:30:45;10.73;;;3.35;;
46689;SDS011;32423;45.398;10.874;2023-11-19T03:33:39;7.53;;;4.10;;
46689;SDS011;32423;45.398;10.874;2023-11-19T03:36:33;8.27;;;4.32;;
46689;SDS011;32423;45.398;10.874;2023-11-19T03:39:30;6.57;;;4.20;;
46689;SDS011;32423;45.398;10.874;2023-11-19T03:42:25;7.63;;;4.53;;
46689;SDS011;32423;45.398;10.874;2023-11-19T03:45:20;7.55;;;4.50;;
46689;SDS011;32423;45.398;10.874;2023-11-19T03:48:14;7.55;;;4.45;;
46689;SDS011;32423;45.398;10.874;2023-11-19T03:51:09;4.80;;;3.40;;
46689;SDS011;32423;45.398;10.874;2023-11-19T03:54:05;7.35;;;4.18;;
46689;SDS011;32423;45.398;10.874;2023-11-19T03:59:53;9.65;;;4.45;;
46689;SDS011;32423;45.398;10.874;2023-11-19T04:02:51;6.43;;;4.18;;
46689;SDS011;32423;45.398;10.874;2023-11-19T04:05:45;7.47;;;3.70;;
46689;SDS011;32423;45.398;10.874;2023-11-19T04:08:40;3.53;;;2.65;;
46689;SDS011;32423;45.398;10.874;2023-11-19T04:11:35;11.20;;;4.30;;
46689;SDS011;32423;45.398;10.874;2023-11-19T04:14:29;6.15;;;3.75;;
46689;SDS011;32423;45.398;10.874;2023-11-19T04:17:24;6.18;;;3.65;;
46689;SDS011;32423;45.398;10.874;2023-11-19T04:20:18;9.82;;;5.25;;
46689;SDS011;32423;45.398;10.874;2023-11-19T04:26:06;12.85;;;5.25;;
46689;SDS011;32423;45.398;10.874;2023-11-19T04:28:58;7.88;;;5.28;;
46689;SDS011;32423;45.398;10.874;2023-11-19T04:31:53;7.88;;;5.63;;
46689;SDS011;32423;45.398;10.874;2023-11-19T04:34:47;11.93;;;3.97;;
46689;SDS011;32423;45.398;10.874;2023-11-19T04:37:42;10.68;;;5.82;;
46689;SDS011;32423;45.398;10.874;2023-11-19T04:40:36;10.57;;;5.70;;
46689;SDS011;32423;45.398;10.874;2023-11-19T04:43:31;8.48;;;5.30;;
46689;SDS011;32423;45.398;10.874;2023-11-19T04:46:25;11.73;;;5.97;;
46689;SDS011;32423;45.398;10.874;2023-11-19T04:49:17;9.33;;;5.50;;
46689;SDS011;32423;45.398;10.874;2023-11-19T04:52:12;9.88;;;5.72;;
46689;SDS011;32423;45.398;10.874;2023-11-19T04:55:04;9.35;;;5.47;;
46689;SDS011;32423;45.398;10.874;2023-11-19T04:57:59;5.28;;;3.58;;
46689;SDS011;32423;45.398;10.874;2023-11-19T05:00:53;10.20;;;5.55;;
46689;SDS011;32423;45.398;10.874;2023-11-19T05:03:48;4.95;;;3.65;;
46689;SDS011;32423;45.398;10.874;2023-11-19T05:06:40;8.48;;;4.95;;
46689;SDS011;32423;45.398;10.874;2023-11-19T05:09:32;14.80;;;7.05;;
46689;SDS011;32423;45.398;10.874;2023-11-19T05:12:26;18.35;;;6.82;;
46689;SDS011;32423;45.398;10.874;2023-11-19T05:15:21;7.90;;;5.00;;
46689;SDS011;32423;45.398;10.874;2023-11-19T05:18:19;6.47;;;3.80;;
46689;SDS011;32423;45.398;10.874;2023-11-19T05:21:13;9.70;;;6.35;;
46689;SDS011;32423;45.398;10.874;2023-11-19T05:24:07;7.20;;;5.18;;
46689;SDS011;32423;45.398;10.874;2023-11-19T05:27:02;13.48;;;7.43;;
46689;SDS011;32423;45.398;10.874;2023-11-19T05:30:00;19.25;;;15.77;;
46689;SDS011;32423;45.398;10.874;2023-11-19T05:32:55;8.77;;;6.65;;
46689;SDS011;32423;45.398;10.874;2023-11-19T05:35:49;14.50;;;6.63;;
46689;SDS011;32423;45.398;10.874;2023-11-19T05:38:44;6.75;;;4.60;;
46689;SDS011;32423;45.398;10.874;2023-11-19T05:41:38;10.37;;;5.77;;
46689;SDS011;32423;45.398;10.874;2023-11-19T05:44:34;7.55;;;5.75;;
46689;SDS011;32423;45.398;10.874;2023-11-19T05:47:26;7.97;;;5.30;;
46689;SDS011;32423;45.398;10.874;2023-11-19T05:50:18;6.85;;;4.35;;
46689;SDS011;32423;45.398;10.874;2023-11-19T05:53:10;7.95;;;5.57;;
46689;SDS011;32423;45.398;10.874;2023-11-19T05:56:02;13.15;;;5.78;;
46689;SDS011;32423;45.398;10.874;2023-11-19T05:58:57;9.85;;;5.75;;
46689;SDS011;32423;45.398;10.874;2023-11-19T06:01:53;10.80;;;5.45;;
46689;SDS011;32423;45.398;10.874;2023-11-19T06:04:54;14.52;;;5.05;;
46689;SDS011;32423;45.398;10.874;2023-11-19T06:07:46;9.57;;;5.65;;
46689;SDS011;32423;45.398;10.874;2023-11-19T06:10:41;10.27;;;5.20;;
46689;SDS011;32423;45.398;10.874;2023-11-19T06:13:39;9.57;;;5.82;;
46689;SDS011;32423;45.398;10.874;2023-11-19T06:16:34;8.87;;;5.70;;
46689;SDS011;32423;45.398;10.874;2023-11-19T06:19:29;7.55;;;4.47;;
46689;SDS011;32423;45.398;10.874;2023-11-19T06:22:21;10.05;;;4.70;;
46689;SDS011;32423;45.398;10.874;2023-11-19T06:25:12;5.80;;;4.00;;
46689;SDS011;32423;45.398;10.874;2023-11-19T06:28:08;5.85;;;3.40;;
46689;SDS011;32423;45.398;10.874;2023-11-19T06:31:00;8.68;;;4.72;;
46689;SDS011;32423;45.398;10.874;2023-11-19T06:33:55;7.28;;;4.82;;
46689;SDS011;32423;45.398;10.874;2023-11-19T06:36:50;8.73;;;5.00;;
46689;SDS011;32423;45.398;10.874;2023-11-19T06:39:42;13.02;;;6.85;;
46689;SDS011;32423;45.398;10.874;2023-11-19T06:42:37;11.47;;;5.13;;
46689;SDS011;32423;45.398;10.874;2023-11-19T06:45:31;12.25;;;5.20;;
46689;SDS011;32423;45.398;10.874;2023-11-19T06:48:26;8.93;;;5.25;;
46689;SDS011;32423;45.398;10.874;2023-11-19T06:51:20;14.98;;;4.65;;
46689;SDS011;32423;45.398;10.874;2023-11-19T06:54:12;4.30;;;3.08;;
46689;SDS011;32423;45.398;10.874;2023-11-19T06:57:05;32.22;;;5.25;;
46689;SDS011;32423;45.398;10.874;2023-11-19T06:59:59;11.82;;;4.57;;
46689;SDS011;32423;45.398;10.874;2023-11-19T07:02:54;7.22;;;3.30;;
46689;SDS011;32423;45.398;10.874;2023-11-19T07:05:49;17.08;;;4.45;;
46689;SDS011;32423;45.398;10.874;2023-11-19T07:08:44;7.82;;;4.43;;
46689;SDS011;32423;45.398;10.874;2023-11-19T07:11:41;5.25;;;3.58;;
46689;SDS011;32423;45.398;10.874;2023-11-19T07:14:36;5.20;;;3.27;;
46689;SDS011;32423;45.398;10.874;2023-11-19T07:17:31;7.43;;;3.23;;
46689;SDS011;32423;45.398;10.874;2023-11-19T07:20:25;6.68;;;3.25;;
46689;SDS011;32423;45.398;10.874;2023-11-19T07:23:20;6.63;;;4.80;;
46689;SDS011;32423;45.398;10.874;2023-11-19T07:26:12;7.07;;;3.83;;
46689;SDS011;32423;45.398;10.874;2023-11-19T07:29:09;6.28;;;4.70;;
46689;SDS011;32423;45.398;10.874;2023-11-19T07:32:04;6.78;;;4.18;;
46689;SDS011;32423;45.398;10.874;2023-11-19T07:35:03;9.15;;;4.60;;
46689;SDS011;32423;45.398;10.874;2023-11-19T07:37:55;7.10;;;4.38;;
46689;SDS011;32423;45.398;10.874;2023-11-19T07:40:50;9.83;;;3.90;;
46689;SDS011;32423;45.398;10.874;2023-11-19T07:43:45;5.70;;;2.87;;
46689;SDS011;32423;45.398;10.874;2023-11-19T07:46:40;10.77;;;4.30;;
46689;SDS011;32423;45.398;10.874;2023-11-19T07:49:34;10.68;;;3.95;;
46689;SDS011;32423;45.398;10.874;2023-11-19T07:52:24;6.13;;;3.92;;
46689;SDS011;32423;45.398;10.874;2023-11-19T07:55:18;7.80;;;5.20;;
46689;SDS011;32423;45.398;10.874;2023-11-19T07:58:13;9.55;;;5.00;;
46689;SDS011;32423;45.398;10.874;2023-11-19T08:01:07;11.82;;;6.80;;
46689;SDS011;32423;45.398;10.874;2023-11-19T08:04:02;10.30;;;4.67;;
46689;SDS011;32423;45.398;10.874;2023-11-19T08:06:57;14.55;;;7.57;;
46689;SDS011;32423;45.398;10.874;2023-11-19T08:09:49;15.27;;;7.05;;
46689;SDS011;32423;45.398;10.874;2023-11-19T08:12:43;13.80;;;7.15;;
46689;SDS011;32423;45.398;10.874;2023-11-19T08:15:41;7.10;;;3.50;;
46689;SDS011;32423;45.398;10.874;2023-11-19T08:18:35;6.85;;;3.47;;
46689;SDS011;32423;45.398;10.874;2023-11-19T08:21:25;5.70;;;3.53;;
46689;SDS011;32423;45.398;10.874;2023-11-19T08:24:17;5.35;;;3.22;;
46689;SDS011;32423;45.398;10.874;2023-11-19T08:27:09;6.53;;;3.72;;
46689;SDS011;32423;45.398;10.874;2023-11-19T08:30:03;11.43;;;3.55;;
46689;SDS011;32423;45.398;10.874;2023-11-19T08:32:57;11.73;;;4.03;;
46689;SDS011;32423;45.398;10.874;2023-11-19T08:35:52;4.87;;;2.63;;
46689;SDS011;32423;45.398;10.874;2023-11-19T08:38:46;10.50;;;3.38;;
46689;SDS011;32423;45.398;10.874;2023-11-19T08:41:41;5.45;;;3.78;;
46689;SDS011;32423;45.398;10.874;2023-11-19T08:44:35;6.20;;;3.53;;
46689;SDS011;32423;45.398;10.874;2023-11-19T08:47:30;6.35;;;3.47;;
46689;SDS011;32423;45.398;10.874;2023-11-19T08:50:27;7.10;;;5.20;;
46689;SDS011;32423;45.398;10.874;2023-11-19T08:53:21;11.63;;;4.47;;
46689;SDS011;32423;45.398;10.874;2023-11-19T08:56:16;7.28;;;4.78;;
46689;SDS011;32423;45.398;10.874;2023-11-19T08:59:10;7.63;;;4.72;;
46689;SDS011;32423;45.398;10.874;2023-11-19T09:02:02;8.00;;;5.18;;
46689;SDS011;32423;45.398;10.874;2023-11-19T09:04:57;10.18;;;5.13;;
46689;SDS011;32423;45.398;10.874;2023-11-19T09:07:49;11.57;;;5.50;;
46689;SDS011;32423;45.398;10.874;2023-11-19T09:10:44;9.15;;;5.57;;
46689;SDS011;32423;45.398;10.874;2023-11-19T09:13:33;10.98;;;5.60;;
46689;SDS011;32423;45.398;10.874;2023-11-19T09:16:23;8.45;;;4.95;;
46689;SDS011;32423;45.398;10.874;2023-11-19T09:19:15;9.85;;;5.82;;
46689;SDS011;32423;45.398;10.874;2023-11-19T09:22:09;15.88;;;5.38;;
46689;SDS011;32423;45.398;10.874;2023-11-19T09:25:04;10.17;;;5.70;;
46689;SDS011;32423;45.398;10.874;2023-11-19T09:27:59;9.83;;;6.93;;
46689;SDS011;32423;45.398;10.874;2023-11-19T09:30:53;10.52;;;5.90;;
46689;SDS011;32423;45.398;10.874;2023-11-19T09:33:48;16.90;;;6.95;;
46689;SDS011;32423;45.398;10.874;2023-11-19T09:36:42;9.73;;;6.25;;
46689;SDS011;32423;45.398;10.874;2023-11-19T09:39:34;11.63;;;7.07;;
46689;SDS011;32423;45.398;10.874;2023-11-19T09:42:29;16.65;;;7.05;;
46689;SDS011;32423;45.398;10.874;2023-11-19T09:45:30;12.63;;;6.60;;
46689;SDS011;32423;45.398;10.874;2023-11-19T09:48:28;14.52;;;6.15;;
46689;SDS011;32423;45.398;10.874;2023-11-19T09:51:23;13.27;;;6.50;;
46689;SDS011;32423;45.398;10.874;2023-11-19T09:54:18;14.07;;;6.87;;
46689;SDS011;32423;45.398;10.874;2023-11-19T09:57:15;17.05;;;8.13;;
46689;SDS011;32423;45.398;10.874;2023-11-19T10:00:11;10.05;;;7.25;;
46689;SDS011;32423;45.398;10.874;2023-11-19T10:03:06;12.48;;;6.78;;
46689;SDS011;32423;45.398;10.874;2023-11-19T10:06:00;18.75;;;7.93;;
46689;SDS011;32423;45.398;10.874;2023-11-19T10:08:55;11.57;;;8.10;;
46689;SDS011;32423;45.398;10.874;2023-11-19T10:11:46;14.00;;;8.45;;
46689;SDS011;32423;45.398;10.874;2023-11-19T10:14:41;13.18;;;7.30;;
46689;SDS011;32423;45.398;10.874;2023-11-19T10:17:35;15.93;;;7.80;;
46689;SDS011;32423;45.398;10.874;2023-11-19T10:20:27;14.52;;;8.13;;
46689;SDS011;32423;45.398;10.874;2023-11-19T10:23:14;13.30;;;8.07;;
46689;SDS011;32423;45.398;10.874;2023-11-19T10:26:06;14.60;;;8.45;;
46689;SDS011;32423;45.398;10.874;2023-11-19T10:28:56;20.77;;;8.20;;
46689;SDS011;32423;45.398;10.874;2023-11-19T10:31:57;15.33;;;8.17;;
46689;SDS011;32423;45.398;10.874;2023-11-19T10:34:50;15.35;;;8.02;;
46689;SDS011;32423;45.398;10.874;2023-11-19T10:37:54;14.52;;;8.45;;
46689;SDS011;32423;45.398;10.874;2023-11-19T10:40:48;10.90;;;7.82;;
46689;SDS011;32423;45.398;10.874;2023-11-19T10:43:46;13.38;;;7.50;;
46689;SDS011;32423;45.398;10.874;2023-11-19T10:46:39;11.13;;;7.53;;
46689;SDS011;32423;45.398;10.874;2023-11-19T10:49:38;15.85;;;8.10;;
46689;SDS011;32423;45.398;10.874;2023-11-19T10:52:32;12.45;;;8.20;;
46689;SDS011;32423;45.398;10.874;2023-11-19T10:55:34;15.88;;;9.60;;
46689;SDS011;32423;45.398;10.874;2023-11-19T10:58:32;17.13;;;9.10;;
46689;SDS011;32423;45.398;10.874;2023-11-19T11:01:22;14.18;;;8.55;;
46689;SDS011;32423;45.398;10.874;2023-11-19T11:04:19;13.70;;;7.38;;
46689;SDS011;32423;45.398;10.874;2023-11-19T11:07:19;17.63;;;9.52;;
46689;SDS011;32423;45.398;10.874;2023-11-19T11:10:15;15.25;;;9.35;;
46689;SDS011;32423;45.398;10.874;2023-11-19T11:13:06;15.32;;;10.27;;
46689;SDS011;32423;45.398;10.874;2023-11-19T11:16:05;15.07;;;10.13;;
46689;SDS011;32423;45.398;10.874;2023-11-19T11:19:00;44.30;;;12.65;;
46689;SDS011;32423;45.398;10.874;2023-11-19T11:21:55;19.33;;;9.35;;
46689;SDS011;32423;45.398;10.874;2023-11-19T11:25:11;13.50;;;8.73;;
46689;SDS011;32423;45.398;10.874;2023-11-19T11:28:56;14.07;;;8.70;;
46689;SDS011;32423;45.398;10.874;2023-11-19T11:37:39;14.65;;;9.27;;
46689;SDS011;32423;45.398;10.874;2023-11-19T11:40:40;12.85;;;8.80;;
46689;SDS011;32423;45.398;10.874;2023-11-19T11:43:46;14.33;;;7.93;;
46689;SDS011;32423;45.398;10.874;2023-11-19T11:46:53;12.85;;;8.13;;
46689;SDS011;32423;45.398;10.874;2023-11-19T11:49:47;10.93;;;7.90;;
46689;SDS011;32423;45.398;10.874;2023-11-19T11:55:54;16.38;;;7.88;;
46689;SDS011;32423;45.398;10.874;2023-11-19T11:58:49;12.02;;;6.88;;
46689;SDS011;32423;45.398;10.874;2023-11-19T12:01:56;12.30;;;6.40;;
46689;SDS011;32423;45.398;10.874;2023-11-19T12:04:56;10.30;;;6.32;;
46689;SDS011;32423;45.398;10.874;2023-11-19T12:07:54;11.35;;;6.97;;
46689;SDS011;32423;45.398;10.874;2023-11-19T12:13:47;11.68;;;6.47;;
46689;SDS011;32423;45.398;10.874;2023-11-19T12:16:42;13.43;;;6.60;;
46689;SDS011;32423;45.398;10.874;2023-11-19T12:19:32;12.63;;;7.57;;
46689;SDS011;32423;45.398;10.874;2023-11-19T12:22:24;10.10;;;6.30;;
46689;SDS011;32423;45.398;10.874;2023-11-19T12:25:16;23.17;;;9.35;;
46689;SDS011;32423;45.398;10.874;2023-11-19T12:28:12;13.45;;;7.82;;
46689;SDS011;32423;45.398;10.874;2023-11-19T12:31:09;10.18;;;7.18;;
46689;SDS011;32423;45.398;10.874;2023-11-19T12:33:59;11.30;;;5.32;;
46689;SDS011;32423;45.398;10.874;2023-11-19T12:36:51;11.52;;;7.45;;
46689;SDS011;32423;45.398;10.874;2023-11-19T12:39:46;11.00;;;5.80;;
46689;SDS011;32423;45.398;10.874;2023-11-19T12:42:38;13.18;;;8.27;;
46689;SDS011;32423;45.398;10.874;2023-11-19T12:45:39;11.57;;;8.05;;
46689;SDS011;32423;45.398;10.874;2023-11-19T12:48:28;15.60;;;7.82;;
46689;SDS011;32423;45.398;10.874;2023-11-19T12:51:21;14.23;;;7.85;;
46689;SDS011;32423;45.398;10.874;2023-11-19T12:54:31;10.20;;;7.07;;
46689;SDS011;32423;45.398;10.874;2023-11-19T12:57:39;15.10;;;8.20;;
46689;SDS011;32423;45.398;10.874;2023-11-19T13:00:32;11.82;;;6.65;;
46689;SDS011;32423;45.398;10.874;2023-11-19T13:03:32;9.57;;;6.65;;
46689;SDS011;32423;45.398;10.874;2023-11-19T13:06:28;9.80;;;6.35;;
46689;SDS011;32423;45.398;10.874;2023-11-19T13:09:24;9.85;;;6.10;;
46689;SDS011;32423;45.398;10.874;2023-11-19T13:12:17;10.27;;;5.80;;
46689;SDS011;32423;45.398;10.874;2023-11-19T13:15:21;10.50;;;6.65;;
46689;SDS011;32423;45.398;10.874;2023-11-19T13:18:15;10.75;;;6.30;;
46689;SDS011;32423;45.398;10.874;2023-11-19T13:21:11;19.65;;;7.50;;
46689;SDS011;32423;45.398;10.874;2023-11-19T13:24:05;21.42;;;8.80;;
46689;SDS011;32423;45.398;10.874;2023-11-19T13:26:58;11.73;;;6.68;;
46689;SDS011;32423;45.398;10.874;2023-11-19T13:29:52;21.63;;;8.52;;
46689;SDS011;32423;45.398;10.874;2023-11-19T13:32:44;8.98;;;5.85;;
46689;SDS011;32423;45.398;10.874;2023-11-19T13:35:35;8.88;;;6.35;;
46689;SDS011;32423;45.398;10.874;2023-11-19T13:38:30;15.30;;;6.30;;
46689;SDS011;32423;45.398;10.874;2023-11-19T13:41:24;10.85;;;6.97;;
46689;SDS011;32423;45.398;10.874;2023-11-19T13:44:19;9.38;;;7.03;;
46689;SDS011;32423;45.398;10.874;2023-11-19T13:47:13;12.23;;;6.80;;
46689;SDS011;32423;45.398;10.874;2023-11-19T13:50:08;7.85;;;5.95;;
46689;SDS011;32423;45.398;10.874;2023-11-19T13:53:02;9.52;;;5.80;;
46689;SDS011;32423;45.398;10.874;2023-11-19T13:55:55;10.18;;;5.85;;
46689;SDS011;32423;45.398;10.874;2023-11-19T13:58:49;17.50;;;6.80;;
46689;SDS011;32423;45.398;10.874;2023-11-19T14:01:44;7.13;;;5.72;;
46689;SDS011;32423;45.398;10.874;2023-11-19T14:04:38;8.55;;;6.03;;
46689;SDS011;32423;45.398;10.874;2023-11-19T14:07:33;6.63;;;5.82;;
46689;SDS011;32423;45.398;10.874;2023-11-19T14:10:27;7.38;;;5.40;;
46689;SDS011;32423;45.398;10.874;2023-11-19T14:13:18;10.68;;;6.55;;
46689;SDS011;32423;45.398;10.874;2023-11-19T14:16:10;8.30;;;6.60;;
46689;SDS011;32423;45.398;10.874;2023-11-19T14:19:05;8.65;;;6.43;;
46689;SDS011;32423;45.398;10.874;2023-11-19T14:21:58;11.57;;;6.28;;
46689;SDS011;32423;45.398;10.874;2023-11-19T14:24:50;13.40;;;6.60;;
46689;SDS011;32423;45.398;10.874;2023-11-19T14:27:43;16.15;;;7.25;;
46689;SDS011;32423;45.398;10.874;2023-11-19T14:30:36;10.48;;;6.45;;
46689;SDS011;32423;45.398;10.874;2023-11-19T14:33:30;11.85;;;6.90;;
46689;SDS011;32423;45.398;10.874;2023-11-19T14:36:25;11.68;;;7.40;;
46689;SDS011;32423;45.398;10.874;2023-11-19T14:39:20;16.60;;;8.32;;
46689;SDS011;32423;45.398;10.874;2023-11-19T14:42:09;14.50;;;6.95;;
46689;SDS011;32423;45.398;10.874;2023-11-19T14:45:04;12.02;;;6.13;;
46689;SDS011;32423;45.398;10.874;2023-11-19T14:47:54;11.68;;;6.50;;
46689;SDS011;32423;45.398;10.874;2023-11-19T14:50:48;8.75;;;5.95;;
46689;SDS011;32423;45.398;10.874;2023-11-19T14:53:38;9.73;;;6.50;;
46689;SDS011;32423;45.398;10.874;2023-11-19T14:56:33;10.40;;;6.97;;
46689;SDS011;32423;45.398;10.874;2023-11-19T14:59:27;7.38;;;5.60;;
46689;SDS011;32423;45.398;10.874;2023-11-19T15:02:20;11.43;;;5.85;;
46689;SDS011;32423;45.398;10.874;2023-11-19T15:05:14;9.75;;;5.70;;
46689;SDS011;32423;45.398;10.874;2023-11-19T15:08:07;10.02;;;6.95;;
46689;SDS011;32423;45.398;10.874;2023-11-19T15:11:01;9.23;;;4.97;;
46689;SDS011;32423;45.398;10.874;2023-11-19T15:13:56;11.90;;;6.93;;
46689;SDS011;32423;45.398;10.874;2023-11-19T15:16:48;12.23;;;6.10;;
46689;SDS011;32423;45.398;10.874;2023-11-19T15:19:42;8.15;;;5.82;;
46689;SDS011;32423;45.398;10.874;2023-11-19T15:22:37;11.32;;;5.63;;
46689;SDS011;32423;45.398;10.874;2023-11-19T15:25:32;9.43;;;6.97;;
46689;SDS011;32423;45.398;10.874;2023-11-19T15:28:26;9.80;;;5.33;;
46689;SDS011;32423;45.398;10.874;2023-11-19T15:31:21;6.63;;;4.85;;
46689;SDS011;32423;45.398;10.874;2023-11-19T15:34:16;6.15;;;5.07;;
46689;SDS011;32423;45.398;10.874;2023-11-19T15:37:10;11.57;;;7.28;;
46689;SDS011;32423;45.398;10.874;2023-11-19T15:40:05;10.48;;;7.35;;
46689;SDS011;32423;45.398;10.874;2023-11-19T15:43:01;12.90;;;7.25;;
46689;SDS011;32423;45.398;10.874;2023-11-19T15:45:56;9.30;;;6.80;;
46689;SDS011;32423;45.398;10.874;2023-11-19T15:48:50;15.80;;;7.85;;
46689;SDS011;32423;45.398;10.874;2023-11-19T15:51:45;8.68;;;5.55;;
46689;SDS011;32423;45.398;10.874;2023-11-19T15:54:39;10.27;;;6.68;;
46689;SDS011;32423;45.398;10.874;2023-11-19T15:57:32;11.05;;;7.18;;
46689;SDS011;32423;45.398;10.874;2023-11-19T16:00:26;12.80;;;7.23;;
46689;SDS011;32423;45.398;10.874;2023-11-19T16:03:18;12.07;;;7.65;;
46689;SDS011;32423;45.398;10.874;2023-11-19T16:08:55;10.93;;;7.15;;
46689;SDS011;32423;45.398;10.874;2023-11-19T16:11:50;20.80;;;7.97;;
46689;SDS011;32423;45.398;10.874;2023-11-19T16:14:39;12.20;;;7.20;;
46689;SDS011;32423;45.398;10.874;2023-11-19T16:17:34;14.63;;;8.27;;
46689;SDS011;32423;45.398;10.874;2023-11-19T16:20:29;12.17;;;8.40;;
46689;SDS011;32423;45.398;10.874;2023-11-19T16:37:40;12.18;;;7.72;;
46689;SDS011;32423;45.398;10.874;2023-11-19T16:40:37;10.80;;;7.70;;
46689;SDS011;32423;45.398;10.874;2023-11-19T16:43:32;37.05;;;22.20;;
46689;SDS011;32423;45.398;10.874;2023-11-19T16:46:26;31.83;;;17.07;;
46689;SDS011;32423;45.398;10.874;2023-11-19T16:49:18;28.05;;;16.15;;
46689;SDS011;32423;45.398;10.874;2023-11-19T16:52:12;16.20;;;10.15;;
46689;SDS011;32423;45.398;10.874;2023-11-19T16:55:01;15.48;;;8.75;;
46689;SDS011;32423;45.398;10.874;2023-11-19T16:58:00;20.45;;;11.50;;
46689;SDS011;32423;45.398;10.874;2023-11-19T17:00:52;11.68;;;8.40;;
46689;SDS011;32423;45.398;10.874;2023-11-19T17:03:46;8.37;;;5.53;;
46689;SDS011;32423;45.398;10.874;2023-11-19T17:06:41;11.02;;;6.53;;
46689;SDS011;32423;45.398;10.874;2023-11-19T17:09:36;8.15;;;6.40;;
46689;SDS011;32423;45.398;10.874;2023-11-19T17:12:29;21.98;;;8.00;;
46689;SDS011;32423;45.398;10.874;2023-11-19T17:15:21;12.20;;;8.70;;
46689;SDS011;32423;45.398;10.874;2023-11-19T17:18:16;13.27;;;8.07;;
46689;SDS011;32423;45.398;10.874;2023-11-19T17:21:08;12.27;;;8.23;;
46689;SDS011;32423;45.398;10.874;2023-11-19T17:24:02;11.17;;;5.43;;
46689;SDS011;32423;45.398;10.874;2023-11-19T17:26:57;19.03;;;11.20;;
46689;SDS011;32423;45.398;10.874;2023-11-19T17:29:51;15.70;;;9.33;;
46689;SDS011;32423;45.398;10.874;2023-11-19T17:32:42;14.73;;;9.00;;
46689;SDS011;32423;45.398;10.874;2023-11-19T17:35:37;13.07;;;7.47;;
46689;SDS011;32423;45.398;10.874;2023-11-19T17:38:28;26.27;;;12.68;;
46689;SDS011;32423;45.398;10.874;2023-11-19T17:41:22;20.25;;;11.50;;